createdAt,value
2023-02-23T00:01:27.229Z,100141.47
2023-02-23T00:03:56.263Z,100149.16
2023-02-23T00:06:24.338Z,100141.47
2023-02-23T00:08:52.278Z,100152.56
2023-02-23T00:11:20.354Z,100144.88
2023-02-23T00:13:50.493Z,100153.31
2023-02-23T00:16:20.433Z,100161.03
2023-02-23T00:18:51.613Z,100159.25
2023-02-23T00:21:20.968Z,100150.50
2023-02-23T00:23:51.110Z,100160.97
2023-02-23T00:26:20.885Z,100158.25
2023-02-23T00:28:49.132Z,100157.44
2023-02-23T00:31:15.674Z,100157.16
2023-02-23T00:33:42.743Z,100164.16
2023-02-23T00:36:13.440Z,100169.38
2023-02-23T00:38:41.262Z,100165.13
2023-02-23T00:41:10.175Z,100168.53
2023-02-23T00:43:38.711Z,100165.19
2023-02-23T00:46:06.181Z,100170.28
2023-02-23T00:48:34.671Z,100169.41
2023-02-23T00:51:02.649Z,100160.00
2023-02-23T00:53:29.344Z,100175.44
2023-02-23T00:55:56.466Z,100168.53
2023-02-23T00:58:24.750Z,100175.53
2023-02-23T01:00:52.099Z,100178.09
2023-02-23T01:03:18.946Z,100179.00
2023-02-23T01:05:46.118Z,100173.91
2023-02-23T01:08:12.630Z,100178.94
2023-02-23T01:10:42.988Z,100178.13
2023-02-23T01:13:10.294Z,100179.69
2023-02-23T01:15:43.575Z,100189.13
2023-02-23T01:18:11.311Z,100181.50
2023-02-23T01:20:38.390Z,100184.00
2023-02-23T01:23:05.770Z,100187.50
2023-02-23T01:25:33.802Z,100187.41
2023-02-23T01:28:00.980Z,100194.41
2023-02-23T01:30:27.527Z,100201.34
2023-02-23T01:32:54.137Z,100202.25
2023-02-23T01:35:20.654Z,100197.94
2023-02-23T01:37:47.214Z,100203.16
2023-02-23T01:40:17.033Z,100199.69
2023-02-23T01:42:46.154Z,100200.63
2023-02-23T01:45:22.988Z,100200.56
2023-02-23T01:47:51.988Z,100199.81
2023-02-23T01:50:19.893Z,100199.69
2023-02-23T01:52:50.271Z,100197.75
2023-02-23T01:55:24.391Z,100192.56
2023-02-23T01:57:56.264Z,100197.75
2023-02-23T02:00:26.199Z,100192.63
2023-02-23T02:02:52.955Z,100192.66
2023-02-23T02:05:20.606Z,100208.06
2023-02-23T02:07:49.604Z,100201.13
2023-02-23T02:12:56.525Z,100197.63
2023-02-23T02:15:29.587Z,100201.88
2023-02-23T02:18:38.248Z,100203.56
2023-02-23T02:29:49.350Z,100204.09
2023-02-23T02:35:52.691Z,100204.16
2023-02-23T02:41:05.653Z,100205.97
2023-02-23T02:48:59.559Z,100211.06
2023-02-23T02:51:35.206Z,100213.63
2023-02-23T02:57:02.291Z,100217.09
2023-02-23T02:59:48.734Z,100216.19
2023-02-23T03:02:40.525Z,100214.44
2023-02-23T03:05:34.326Z,100212.81
2023-02-23T03:14:07.095Z,100207.69
2023-02-23T03:22:22.042Z,100211.91
2023-02-23T03:25:18.101Z,100213.63
2023-02-23T03:28:11.416Z,100211.13
2023-02-23T03:33:40.010Z,100219.72
2023-02-23T03:36:35.835Z,100219.78
2023-02-23T03:42:17.966Z,100230.16
2023-02-23T03:45:07.909Z,100235.31
2023-02-23T03:47:57.298Z,100238.53
2023-02-23T03:50:53.089Z,100238.56
2023-02-23T03:53:44.673Z,100244.69
2023-02-23T03:56:34.010Z,100240.53
2023-02-23T03:59:22.727Z,100243.09
2023-02-23T04:02:11.344Z,100255.09
2023-02-23T04:04:59.771Z,100249.19
2023-02-23T04:07:46.391Z,100262.81
2023-02-23T04:10:32.855Z,100259.41
2023-02-23T04:18:39.633Z,100269.63
2023-02-23T04:21:07.613Z,100269.66
2023-02-23T04:23:35.978Z,100284.34
2023-02-23T04:26:02.522Z,100271.50
2023-02-23T04:28:29.340Z,100272.22
2023-02-23T04:30:56.121Z,100283.34
2023-02-23T04:33:25.017Z,100276.56
2023-02-23T04:35:54.114Z,100283.50
2023-02-23T04:38:22.594Z,100276.69
2023-02-23T04:40:49.525Z,100290.38
2023-02-23T04:43:16.212Z,100285.31
2023-02-23T04:45:43.056Z,100283.56
2023-02-23T04:48:09.806Z,100291.34
2023-02-23T04:50:36.545Z,100287.88
2023-02-23T04:53:03.502Z,100303.31
2023-02-23T04:55:30.062Z,100295.66
2023-02-23T04:57:59.202Z,100305.84
2023-02-23T05:00:26.573Z,100310.06
2023-02-23T05:02:53.168Z,100311.06
2023-02-23T05:05:19.927Z,100317.94
2023-02-23T05:07:46.698Z,100320.47
2023-02-23T05:10:13.640Z,100317.09
2023-02-23T05:12:40.214Z,100317.94
2023-02-23T05:15:07.356Z,100323.00
2023-02-23T05:17:33.867Z,100324.69
2023-02-23T05:20:00.382Z,100328.03
2023-02-23T05:22:26.930Z,100335.78
2023-02-23T05:24:55.264Z,100340.09
2023-02-23T05:27:23.047Z,100340.94
2023-02-23T05:29:49.561Z,100346.13
2023-02-23T05:32:16.221Z,100340.03
2023-02-23T05:34:42.956Z,100353.84
2023-02-23T05:37:09.563Z,100351.06
2023-02-23T05:39:36.086Z,100358.78
2023-02-23T05:42:02.619Z,100355.41
2023-02-23T05:44:29.191Z,100359.66
2023-02-23T05:46:55.786Z,100357.16
2023-02-23T05:49:22.656Z,100369.13
2023-02-23T05:51:49.270Z,100357.09
2023-02-23T05:54:15.894Z,100360.47
2023-02-23T05:56:42.815Z,100366.56
2023-02-23T05:59:09.353Z,100362.03
2023-02-23T06:01:36.206Z,100372.59
2023-02-23T06:04:04.544Z,100370.78
2023-02-23T06:06:31.852Z,100367.25
2023-02-23T06:08:58.354Z,100371.59
2023-02-23T06:11:24.961Z,100374.28
2023-02-23T06:13:52.382Z,100381.94
2023-02-23T06:16:19.044Z,100383.31
2023-02-23T06:18:45.623Z,100384.31
2023-02-23T06:21:12.543Z,100384.06
2023-02-23T06:23:39.098Z,100394.38
2023-02-23T06:26:05.642Z,100402.22
2023-02-23T06:28:32.243Z,100408.16
2023-02-23T06:30:58.933Z,100407.19
2023-02-23T06:33:25.969Z,100405.41
2023-02-23T06:35:52.902Z,100406.25
2023-02-23T06:38:19.590Z,100413.13
2023-02-23T06:40:46.208Z,100416.44
2023-02-23T06:43:12.776Z,100416.56
2023-02-23T06:45:39.439Z,100429.31
2023-02-23T06:48:06.554Z,100435.31
2023-02-23T06:50:33.232Z,100433.41
2023-02-23T06:52:59.842Z,100442.84
2023-02-23T06:55:26.437Z,100447.03
2023-02-23T06:57:54.535Z,100448.56
2023-02-23T07:00:21.964Z,100452.72
2023-02-23T07:02:48.844Z,100450.19
2023-02-23T07:05:16.320Z,100461.34
2023-02-23T07:07:43.353Z,100462.84
2023-02-23T07:10:10.705Z,100461.06
2023-02-23T07:12:37.283Z,100466.28
2023-02-23T07:15:04.328Z,100467.19
2023-02-23T07:17:30.864Z,100479.16
2023-02-23T07:19:57.578Z,100483.47
2023-02-23T07:22:25.324Z,100487.63
2023-02-23T07:24:51.857Z,100484.16
2023-02-23T07:27:18.428Z,100497.00
2023-02-23T07:29:44.938Z,100492.75
2023-02-23T07:32:11.905Z,100503.59
2023-02-23T07:34:39.080Z,100509.88
2023-02-23T07:37:05.849Z,100506.28
2023-02-23T07:39:32.422Z,100522.63
2023-02-23T07:41:59.006Z,100520.06
2023-02-23T07:44:25.583Z,100537.09
2023-02-23T07:46:52.896Z,100532.91
2023-02-23T07:49:19.463Z,100548.34
2023-02-23T07:51:46.472Z,100557.00
2023-02-23T07:54:13.598Z,100574.06
2023-02-23T07:56:40.148Z,100568.84
2023-02-23T07:59:06.676Z,100575.72
2023-02-23T08:01:33.269Z,100576.72
2023-02-23T08:03:59.900Z,100569.84
2023-02-23T08:06:26.577Z,100572.19
2023-02-23T08:08:53.099Z,100589.47
2023-02-23T08:11:19.944Z,100591.94
2023-02-23T08:13:46.650Z,100598.91
2023-02-23T08:16:13.222Z,100607.44
2023-02-23T08:18:40.138Z,100615.97
2023-02-23T08:21:06.808Z,100609.81
2023-02-23T08:23:34.319Z,100615.16
2023-02-23T08:26:02.144Z,100612.59
2023-02-23T08:28:30.160Z,100618.63
2023-02-23T08:30:57.076Z,100625.53
2023-02-23T08:33:23.762Z,100626.38
2023-02-23T08:35:50.315Z,100621.28
2023-02-23T08:38:18.363Z,100622.94
2023-02-23T08:40:45.091Z,100613.81
2023-02-23T08:43:11.646Z,100606.31
2023-02-23T08:45:39.602Z,100599.78
2023-02-23T08:48:08.870Z,100601.44
2023-02-23T08:50:35.479Z,100605.91
2023-02-23T08:53:02.038Z,100604.16
2023-02-23T08:55:28.568Z,100599.78
2023-02-23T08:57:55.149Z,100604.09
2023-02-23T09:00:22.129Z,100607.44
2023-02-23T09:02:48.729Z,100603.22
2023-02-23T09:05:16.432Z,100606.66
2023-02-23T09:07:45.311Z,100615.19
2023-02-23T09:10:14.442Z,100619.38
2023-02-23T09:12:41.015Z,100622.94
2023-02-23T09:15:08.645Z,100623.88
2023-02-23T09:17:35.220Z,100625.56
2023-02-23T09:20:02.194Z,100627.28
2023-02-23T09:22:28.765Z,100632.44
2023-02-23T09:24:55.435Z,100638.50
2023-02-23T09:27:22.007Z,100641.22
2023-02-23T09:29:48.616Z,100632.91
2023-02-23T09:32:15.588Z,100635.75
2023-02-23T09:34:42.278Z,100628.41
2023-02-23T09:37:08.829Z,100625.97
2023-02-23T09:39:38.383Z,100632.78
2023-02-23T09:50:12.349Z,100631.09
2023-02-23T09:52:44.966Z,100626.41
2023-02-23T09:55:14.195Z,100628.94
2023-02-23T09:57:44.636Z,100631.78
2023-02-23T10:00:18.510Z,100626.47
2023-02-23T10:05:47.949Z,100622.81
2023-02-23T10:16:22.767Z,100629.09
2023-02-23T10:21:46.628Z,100613.78
2023-02-23T10:24:20.206Z,100622.19
2023-02-23T10:26:53.065Z,100627.25
2023-02-23T10:29:29.050Z,100623.56
2023-02-23T10:32:02.549Z,100620.88
2023-02-23T10:34:31.051Z,100626.94
2023-02-23T10:37:01.916Z,100638.16
2023-02-23T10:39:30.674Z,100632.63
2023-02-23T10:42:04.992Z,100632.47
2023-02-23T10:44:31.812Z,100636.78
2023-02-23T10:47:01.751Z,100637.66
2023-02-23T10:49:40.694Z,100637.16
2023-02-23T10:52:13.611Z,100641.31
2023-02-23T10:54:44.699Z,100633.56
2023-02-23T10:57:25.640Z,100627.69
2023-02-23T11:00:02.515Z,100634.66
2023-02-23T11:02:30.983Z,100636.50
2023-02-23T11:05:00.198Z,100640.28
2023-02-23T11:07:30.023Z,100636.34
2023-02-23T11:09:57.922Z,100634.97
2023-02-23T11:15:35.243Z,100637.50
2023-02-23T11:18:06.849Z,100644.56
2023-02-23T11:20:39.478Z,100655.91
2023-02-23T11:23:29.069Z,100650.78
2023-02-23T11:26:00.922Z,100649.09
2023-02-23T11:31:15.778Z,100649.94
2023-02-23T11:33:42.541Z,100653.38
2023-02-23T11:36:27.651Z,100655.94
2023-02-23T11:45:15.484Z,100654.13
2023-02-23T11:47:49.355Z,100653.22
2023-02-23T11:53:15.400Z,100652.16
2023-02-23T11:55:59.268Z,100653.00
2023-02-23T11:58:35.838Z,100647.72
2023-02-23T12:01:12.218Z,100639.88
2023-02-23T12:03:45.250Z,100654.41
2023-02-23T12:06:12.015Z,100656.84
2023-02-23T12:08:53.189Z,100657.69
2023-02-23T12:11:24.795Z,100659.34
2023-02-23T12:13:59.469Z,100655.91
2023-02-23T12:16:32.692Z,100665.22
2023-02-23T12:19:06.693Z,100664.34
2023-02-23T12:21:39.957Z,100649.47
2023-02-23T12:26:49.407Z,100658.09
2023-02-23T12:29:25.387Z,100656.50
2023-02-23T12:32:02.865Z,100648.88
2023-02-23T12:34:47.470Z,100653.22
2023-02-23T12:37:44.690Z,100661.81
2023-02-23T12:40:16.956Z,100646.28
2023-02-23T12:45:38.564Z,100647.03
2023-02-23T12:50:58.399Z,100654.63
2023-02-23T12:56:21.268Z,100661.28
2023-02-23T13:01:43.488Z,100656.03
2023-02-23T13:06:59.758Z,100656.78
2023-02-23T13:09:41.311Z,100655.00
2023-02-23T13:18:27.042Z,100665.41
2023-02-23T13:21:01.779Z,100656.75
2023-02-23T13:31:36.434Z,100649.56
2023-02-23T13:34:09.465Z,100652.28
2023-02-23T13:36:37.203Z,100659.28
2023-02-23T13:41:50.440Z,100652.44
2023-02-23T13:44:42.008Z,100651.44
2023-02-23T13:47:34.659Z,100658.19
2023-02-23T13:56:08.921Z,100653.03
2023-02-23T13:58:36.240Z,100655.59
2023-02-23T14:01:14.451Z,100652.03
2023-02-23T14:03:47.064Z,100664.06
2023-02-23T14:06:17.831Z,100657.94
2023-02-23T14:08:52.349Z,100656.97
2023-02-23T14:22:23.521Z,100664.94
2023-02-23T14:25:29.898Z,100663.97
2023-02-23T14:28:02.599Z,100663.06
2023-02-23T14:30:43.482Z,100668.06
2023-02-23T14:39:22.478Z,100663.13
2023-02-23T14:41:59.916Z,100663.94
2023-02-23T14:44:31.310Z,100663.19
2023-02-23T14:47:07.410Z,100668.47
2023-02-23T14:49:40.558Z,100665.09
2023-02-23T14:52:13.995Z,100671.09
2023-02-23T14:54:41.411Z,100662.31
2023-02-23T14:57:25.380Z,100669.09
2023-02-23T14:59:58.246Z,100669.09
2023-02-23T15:02:27.086Z,100664.91
2023-02-23T15:04:54.138Z,100664.91
2023-02-23T15:07:36.480Z,100662.34
2023-02-23T15:10:10.536Z,100670.06
2023-02-23T15:12:38.529Z,100669.19
2023-02-23T15:15:12.969Z,100664.81
2023-02-23T15:17:44.011Z,100666.47
2023-02-23T15:20:17.131Z,100663.13
2023-02-23T15:22:47.305Z,100664.00
2023-02-23T15:27:51.878Z,100659.88
2023-02-23T15:33:06.069Z,100653.72
2023-02-23T15:35:45.565Z,100656.19
2023-02-23T15:38:40.545Z,100652.59
2023-02-23T15:41:07.993Z,100639.47
2023-02-23T15:43:34.851Z,100647.06
2023-02-23T15:46:05.527Z,100646.94
2023-02-23T15:48:45.747Z,100638.25
2023-02-23T15:51:25.184Z,100644.16
2023-02-23T15:53:51.988Z,100641.56
2023-02-23T15:56:28.337Z,100640.66
2023-02-23T15:59:02.348Z,100637.97
2023-02-23T16:01:31.079Z,100631.88
2023-02-23T16:06:36.642Z,100634.41
2023-02-23T16:15:00.922Z,100629.19
2023-02-23T16:17:36.501Z,100628.38
2023-02-23T16:20:18.982Z,100629.19
2023-02-23T16:22:46.928Z,100628.28
2023-02-23T16:25:16.757Z,100636.84
2023-02-23T16:27:45.636Z,100635.94
2023-02-23T16:35:48.942Z,100640.75
2023-02-23T16:38:37.977Z,100636.28
2023-02-23T16:41:10.472Z,100637.13
2023-02-23T16:43:37.548Z,100626.72
2023-02-23T16:46:04.187Z,100627.59
2023-02-23T16:48:30.783Z,100631.72
2023-02-23T16:50:57.654Z,100626.53
2023-02-23T16:53:25.293Z,100618.66
2023-02-23T16:55:55.567Z,100619.50
2023-02-23T16:58:23.384Z,100615.69
2023-02-23T17:00:51.199Z,100614.84
2023-02-23T17:03:21.666Z,100620.88
2023-02-23T17:05:48.362Z,100624.19
2023-02-23T17:08:15.132Z,100621.50
2023-02-23T17:10:43.772Z,100627.47
2023-02-23T17:13:19.135Z,100628.19
2023-02-23T17:15:50.606Z,100627.19
2023-02-23T17:18:19.540Z,100628.81
2023-02-23T17:20:46.412Z,100630.38
2023-02-23T17:23:12.956Z,100628.53
2023-02-23T17:25:39.674Z,100635.25
2023-02-23T17:28:06.266Z,100638.50
2023-02-23T17:30:34.167Z,100630.66
2023-02-23T17:33:01.644Z,100627.91
2023-02-23T17:35:28.596Z,100625.22
2023-02-23T17:37:55.561Z,100630.19
2023-02-23T17:40:26.367Z,100624.06
2023-02-23T17:42:53.574Z,100635.00
2023-02-23T17:45:20.215Z,100637.41
2023-02-23T17:47:46.794Z,100632.13
2023-02-23T17:50:13.370Z,100636.22
2023-02-23T17:52:40.017Z,100640.31
2023-02-23T17:55:08.847Z,100648.69
2023-02-23T17:57:35.627Z,100645.06
2023-02-23T18:00:02.355Z,100648.28
2023-02-23T18:02:28.900Z,100642.97
2023-02-23T18:04:55.464Z,100644.53
2023-02-23T18:07:22.206Z,100649.50
2023-02-23T18:09:50.209Z,100657.97
2023-02-23T18:12:19.260Z,100659.50
2023-02-23T18:14:46.608Z,100659.34
2023-02-23T18:17:14.076Z,100659.16
2023-02-23T18:19:40.656Z,100665.84
2023-02-23T18:22:07.275Z,100656.28
2023-02-23T18:24:34.307Z,100653.56
2023-02-23T18:27:01.727Z,100646.59
2023-02-23T18:29:29.641Z,100647.28
2023-02-23T18:31:57.695Z,100652.25
2023-02-23T18:34:25.793Z,100652.94
2023-02-23T18:36:52.353Z,100652.81
2023-02-23T18:39:19.252Z,100650.09
2023-02-23T18:41:45.808Z,100640.50
2023-02-23T18:44:15.033Z,100648.94
2023-02-23T18:46:43.165Z,100646.16
2023-02-23T18:49:20.348Z,100642.59
2023-02-23T18:51:47.708Z,100644.22
2023-02-23T18:54:18.504Z,100641.59
2023-02-23T18:56:47.018Z,100642.28
2023-02-23T18:59:14.421Z,100637.88
2023-02-23T19:01:42.577Z,100637.78
2023-02-23T19:04:10.647Z,100641.09
2023-02-23T19:06:39.086Z,100631.50
2023-02-23T19:09:09.601Z,100623.66
2023-02-23T19:11:37.592Z,100623.47
2023-02-23T19:14:07.404Z,100621.69
2023-02-23T19:16:36.120Z,100622.47
2023-02-23T19:19:05.071Z,100609.59
2023-02-23T19:21:31.787Z,100603.47
2023-02-23T19:23:59.478Z,100614.50
2023-02-23T19:26:26.743Z,100607.66
2023-02-23T19:28:53.767Z,100610.09
2023-02-23T19:31:25.973Z,100614.31
2023-02-23T19:33:55.842Z,100616.81
2023-02-23T19:36:26.140Z,100615.84
2023-02-23T19:38:52.659Z,100615.75
2023-02-23T19:41:20.745Z,100623.34
2023-02-23T19:43:47.794Z,100620.66
2023-02-23T19:46:17.226Z,100623.94
2023-02-23T19:48:45.677Z,100618.69
2023-02-23T19:51:13.334Z,100623.72
2023-02-23T19:53:40.380Z,100609.09
2023-02-23T19:56:10.738Z,100621.84
2023-02-23T19:58:37.921Z,100626.88
2023-02-23T20:01:06.859Z,100613.97
2023-02-23T20:03:33.709Z,100612.97
2023-02-23T20:06:04.984Z,100616.31
2023-02-23T20:08:31.640Z,100621.31
2023-02-23T20:10:58.357Z,100620.41
2023-02-23T20:13:24.959Z,100616.84
2023-02-23T20:16:01.927Z,100620.94
2023-02-23T20:18:28.757Z,100609.38
2023-02-23T20:20:55.400Z,100622.94
2023-02-23T20:23:21.911Z,100620.00
2023-02-23T20:25:48.490Z,100619.00
2023-02-23T20:28:15.087Z,100615.28
2023-02-23T20:30:46.879Z,100615.91
2023-02-23T20:33:15.218Z,100613.28
2023-02-23T20:35:42.519Z,100624.28
2023-02-23T20:38:10.004Z,100612.19
2023-02-23T20:40:36.749Z,100613.88
2023-02-23T20:43:03.365Z,100614.69
2023-02-23T20:45:29.932Z,100612.06
2023-02-23T20:47:56.506Z,100616.31
2023-02-23T20:50:27.831Z,100608.59
2023-02-23T20:52:54.952Z,100605.16
2023-02-23T20:55:27.203Z,100599.97
2023-02-23T20:57:55.523Z,100604.97
2023-02-23T21:00:23.943Z,100604.97
2023-02-23T21:02:55.588Z,100604.84
2023-02-23T21:05:24.979Z,100601.38
2023-02-23T21:07:51.639Z,100597.88
2023-02-23T21:10:20.344Z,100597.75
2023-02-23T21:12:46.929Z,100596.00
2023-02-23T21:15:14.931Z,100600.22
2023-02-23T21:17:42.232Z,100597.53
2023-02-23T21:20:12.980Z,100599.97
2023-02-23T21:22:40.305Z,100598.97
2023-02-23T21:25:10.845Z,100592.09
2023-02-23T21:27:38.255Z,100589.19
2023-02-23T21:30:06.336Z,100595.28
2023-02-23T21:32:35.506Z,100595.28
2023-02-23T21:35:02.149Z,100600.41
2023-02-23T21:37:28.710Z,100595.97
2023-02-23T21:39:55.450Z,100596.78
2023-02-23T21:42:24.110Z,100600.16
2023-02-23T21:44:50.722Z,100585.53
2023-02-23T21:47:17.367Z,100581.16
2023-02-23T21:49:49.139Z,100591.34
2023-02-23T21:52:17.048Z,100586.94
2023-02-23T21:54:48.034Z,100580.84
2023-02-23T21:57:15.592Z,100586.78
2023-02-23T21:59:42.465Z,100579.88
2023-02-23T22:02:11.479Z,100580.59
2023-02-23T22:04:39.342Z,100577.88
2023-02-23T22:07:06.447Z,100568.41
2023-02-23T22:09:33.271Z,100563.16
2023-02-23T22:11:59.905Z,100565.72
2023-02-23T22:14:26.531Z,100552.81
2023-02-23T22:16:53.106Z,100548.44
2023-02-23T22:19:19.795Z,100556.06
2023-02-23T22:21:48.443Z,100550.06
2023-02-23T22:24:16.370Z,100546.59
2023-02-23T22:26:50.598Z,100536.31
2023-02-23T22:29:17.271Z,100539.53
2023-02-23T22:31:44.051Z,100533.47
2023-02-23T22:34:10.715Z,100535.13
2023-02-23T22:36:37.330Z,100527.25
2023-02-23T22:39:09.605Z,100519.53
2023-02-23T22:41:42.415Z,100510.00
2023-02-23T22:44:12.946Z,100513.31
2023-02-23T22:46:41.365Z,100506.47
2023-02-23T22:49:10.724Z,100501.28
2023-02-23T22:51:38.695Z,100507.19
2023-02-23T22:54:06.182Z,100504.59
2023-02-23T22:56:34.359Z,100503.72
2023-02-23T22:59:06.553Z,100498.47
2023-02-23T23:01:33.871Z,100491.63
2023-02-23T23:04:00.598Z,100496.75
2023-02-23T23:06:27.233Z,100497.56
2023-02-23T23:08:56.267Z,100500.13
2023-02-23T23:11:26.734Z,100499.28
2023-02-23T23:13:57.702Z,100492.44
2023-02-23T23:16:32.250Z,100487.38
2023-02-23T23:19:03.291Z,100479.69
2023-02-23T23:21:32.529Z,100471.19
2023-02-23T23:24:01.375Z,100464.41
2023-02-23T23:26:29.344Z,100458.44
2023-02-23T23:28:59.518Z,100455.06
2023-02-23T23:31:29.849Z,100452.50
2023-02-23T23:34:00.298Z,100444.03
2023-02-23T23:36:32.770Z,100439.75
2023-02-23T23:38:59.885Z,100435.44
2023-02-23T23:41:28.251Z,100427.84
2023-02-23T23:43:57.785Z,100422.69
2023-02-23T23:46:29.485Z,100428.72
2023-02-23T23:48:58.930Z,100423.59
2023-02-23T23:51:30.487Z,100423.59
2023-02-23T23:53:59.265Z,100423.53
2023-02-23T23:56:26.159Z,100413.28
2023-02-23T23:58:54.083Z,100411.53
